Portada
METAR-TAF:

METAR-TAF

Aeroports :

Gènova, Itàlia

latitud: 44-25N, longitud: 008-51E, altitud: 2 m

Observació

L'informe es va fer fa 23 minuts, a les 16:20 UTC
Vent 7 kt del Sud-Oest
Temperatura 21°C
Humitat 60%
Pressió 1027 hPa
Visibilitat 10 km o més
sense núvols per sota de 1500 mi sense presència de cumulonimbus.

METAR: LIMJ 271620Z 23007KT CAVOK 21/13 Q1027

Hora: 18:43 (16:43 UTC)

Pronòstic

L'informe es va fer fa 5 hores i 43 minuts, a les 11:00 UTC
Pronòstic vàlid del 27 a les 12 UTC al 28 a les 12 UTC
Vent 10 kt del Sud
Visibilitat 10 km o més
Núvols disperses a una alçada de 4000 ft
Evolucionant progressivament
l' 27 a les 16 UTC al 27 a les 18 UTC
Vent 5 kt amb direcció variable
Evolucionant progressivament
l' 28 a les 09 UTC al 28 a les 11 UTC
Vent 12 kt del Sud

TAF: LIMJ 271100Z 2712/2812 18010KT 9999 SCT040 BECMG 2716/2718 VRB05KT BECMG 2809/2811 18012KT

Observacions i pronòstics meteorològics de més de 4000 aeroports (METAR i TAF).

Les estacions disponibles són els punts grocs i vermells al mapa.

Posi el ratolí al punt desitjat per veure el nom de l'estació.

Feu clic per veure les observacions i els pronòstics meteorològics.

Per canviar el mapa: feu clic els botons verds amb una creu de color negre per apropar; al botó verd amb un guió per allunyar la imatge; o en les fletxes verdes per a mapes adjacents.


METAR-TAF: